Terminal Aerodrome Forecast
Issued by NWS Newport/Morehead City, NC

Home | Current Version | Previous Version | Graphics & Text | Print | Product List | Glossary On
Versions: 1 2 3 4 5 6 7 8 9 10 11 12
778
FTUS42 KMHX 251128
TAFEWN
TAF
KEWN 251128Z 2512/2612 22010KT P6SM BKN250
     FM251500 22010G15KT P6SM SCT050
     FM251800 23015G20KT P6SM VCSH SCT050
      TEMPO 2518/2521 4SM TS BKN050CB
     FM252100 23015G25KT P6SM SCT050
     FM260700 24010KT P6SM SCT250=

USA.gov is the U.S. government's official web portal to all federal, state and local government web resources and services.